Time;durP1;ratioP1;P1;durP2;ratioP2;P2;SDS_P1;SDS_P2;PMS_P1;PMS_P2;Temp;Humidity;BMP_temperature;BMP_pressure;BME280_temperature;BME280_humidity;BME280_pressure;Samples;Min_cycle;Max_cycle;Signal;HPM_P1;HPM_P2
2021/11/18 00:01:02;;;;;;;56.53;21.35;;;6.60;99.90;;;;;;5085139;28;20028;-60
2021/11/18 00:03:28;;;;;;;47.92;19.88;;;6.50;99.90;;;;;;5070608;28;20036;-62
2021/11/18 00:05:54;;;;;;;48.53;18.92;;;6.60;99.90;;;;;;5072303;28;20048;-61
2021/11/18 00:08:20;;;;;;;63.03;20.90;;;6.60;99.90;;;;;;5070962;28;20040;-61
2021/11/18 00:10:47;;;;;;;74.22;23.83;;;6.60;99.90;;;;;;5070554;28;20459;-60
2021/11/18 00:13:16;;;;;;;53.63;20.98;;;6.80;99.90;;;;;;5070075;28;20093;-61
2021/11/18 00:15:42;;;;;;;54.63;19.95;;;6.90;99.90;;;;;;5071085;28;20411;-62
2021/11/18 00:18:21;;;;;;;52.78;21.00;;;6.90;99.90;;;;;;5087465;28;20389;-61
2021/11/18 00:21:01;;;;;;;53.22;20.45;;;6.80;99.90;;;;;;5089494;28;20020;-62
2021/11/18 00:23:33;;;;;;;41.53;18.88;;;6.70;99.90;;;;;;5075047;28;20038;-61
2021/11/18 00:25:59;;;;;;;60.45;19.60;;;6.70;99.90;;;;;;5088586;28;20537;-62
2021/11/18 00:28:26;;;;;;;54.05;19.77;;;6.70;99.90;;;;;;5070439;28;20036;-63
2021/11/18 00:30:52;;;;;;;44.45;17.83;;;6.60;99.90;;;;;;5070327;28;20398;-62
2021/11/18 00:33:17;;;;;;;48.47;19.60;;;6.60;99.90;;;;;;5071120;28;20043;-62
2021/11/18 00:35:43;;;;;;;56.63;21.92;;;6.60;99.90;;;;;;5070261;28;20028;-62
2021/11/18 00:38:09;;;;;;;53.65;19.33;;;6.60;99.90;;;;;;5085787;28;20502;-62
2021/11/18 00:40:38;;;;;;;43.00;17.70;;;6.50;99.90;;;;;;5070073;28;20114;-62
2021/11/18 00:43:06;;;;;;;50.78;19.20;;;6.50;99.90;;;;;;5068892;28;20035;-62
2021/11/18 00:45:33;;;;;;;53.35;18.25;;;6.40;99.90;;;;;;5069097;28;20063;-62
2021/11/18 00:47:59;;;;;;;49.35;19.05;;;6.30;99.90;;;;;;5070906;28;20074;-62
2021/11/18 00:50:30;;;;;;;40.42;16.88;;;6.30;99.90;;;;;;5075790;28;20032;-62
2021/11/18 00:52:55;;;;;;;43.78;18.02;;;6.40;99.90;;;;;;5085096;28;20032;-61
2021/11/18 00:55:24;;;;;;;50.95;19.35;;;6.40;99.90;;;;;;5083085;28;20028;-62
2021/11/18 00:57:50;;;;;;;47.72;18.25;;;6.30;99.90;;;;;;5075338;28;20094;-61
2021/11/18 01:00:19;;;;;;;54.83;18.77;;;6.30;99.90;;;;;;5076862;28;20052;-62
2021/11/18 01:02:46;;;;;;;49.47;18.95;;;6.20;99.90;;;;;;5088094;28;20024;-61
2021/11/18 01:05:15;;;;;;;38.72;17.00;;;6.20;99.90;;;;;;5078174;28;20474;-62
2021/11/18 01:07:41;;;;;;;56.58;19.48;;;6.20;99.90;;;;;;5086854;28;20101;-62
2021/11/18 01:10:09;;;;;;;52.35;18.02;;;6.20;99.90;;;;;;5077030;28;20025;-63
2021/11/18 01:12:35;;;;;;;55.20;19.10;;;6.30;99.90;;;;;;5088658;28;20036;-60
2021/11/18 01:15:01;;;;;;;47.45;18.35;;;6.30;99.90;;;;;;5096056;28;20031;-61
2021/11/18 01:20:04;;;;;;;52.38;17.48;;;6.10;99.90;;;;;;5513119;22;20425;-64
2021/11/18 01:22:31;;;;;;;50.30;18.52;;;6.10;99.90;;;;;;5062517;28;20040;-64
2021/11/18 01:24:57;;;;;;;53.08;19.15;;;6.00;99.90;;;;;;5068921;28;20037;-64
2021/11/18 01:27:22;;;;;;;50.28;16.58;;;6.00;99.90;;;;;;5075433;28;20040;-64
2021/11/18 01:29:48;;;;;;;48.13;18.17;;;6.00;99.90;;;;;;5076186;28;20034;-64
2021/11/18 01:32:14;;;;;;;46.10;16.48;;;5.90;99.90;;;;;;5059958;28;20113;-64
2021/11/18 01:37:07;;;;;;;53.95;16.65;;;5.90;99.90;;;;;;5052025;28;20037;-62
2021/11/18 01:39:33;;;;;;;46.78;16.27;;;5.90;99.90;;;;;;5074235;28;20028;-62
2021/11/18 01:41:58;;;;;;;43.50;17.08;;;5.90;99.90;;;;;;5067322;28;20028;-60
2021/11/18 01:44:32;;;;;;;40.45;15.52;;;5.80;99.90;;;;;;5076142;28;20044;-60
2021/11/18 01:46:58;;;;;;;37.47;16.77;;;5.80;99.90;;;;;;5051500;28;20032;-61
2021/11/18 01:49:24;;;;;;;47.50;17.02;;;5.80;99.90;;;;;;5047253;28;20390;-59
2021/11/18 01:51:53;;;;;;;43.15;17.38;;;5.90;99.90;;;;;;5048931;28;20093;-60
2021/11/18 01:54:21;;;;;;;40.65;16.30;;;5.90;99.90;;;;;;5047754;28;20538;-62
2021/11/18 01:56:47;;;;;;;46.60;17.10;;;5.90;99.90;;;;;;5049753;28;20048;-61
2021/11/18 01:59:18;;;;;;;49.83;17.65;;;5.80;99.90;;;;;;5044055;28;20445;-62
2021/11/18 02:01:47;;;;;;;40.75;15.52;;;5.70;99.90;;;;;;5050669;28;20033;-61
2021/11/18 02:04:19;;;;;;;38.17;14.32;;;5.60;99.90;;;;;;5050971;28;20033;-62
2021/11/18 02:06:52;;;;;;;40.03;14.32;;;5.50;99.90;;;;;;5049543;28;20037;-61
2021/11/18 02:09:22;;;;;;;35.83;15.02;;;5.40;99.90;;;;;;5047130;28;20104;-61
2021/11/18 02:11:53;;;;;;;39.22;15.15;;;5.30;99.90;;;;;;5051330;28;20029;-62
2021/11/18 02:14:21;;;;;;;38.28;14.68;;;5.20;99.90;;;;;;5043568;28;20075;-62
2021/11/18 02:16:47;;;;;;;37.00;15.15;;;5.20;99.90;;;;;;5052828;28;20483;-61
2021/11/18 02:19:15;;;;;;;40.20;15.52;;;5.10;99.90;;;;;;5050235;28;20025;-62
2021/11/18 02:21:46;;;;;;;38.30;15.10;;;5.10;99.90;;;;;;5048616;28;20026;-60
2021/11/18 02:24:19;;;;;;;43.53;15.38;;;5.10;99.90;;;;;;5054611;28;20029;-62
2021/11/18 02:26:45;;;;;;;42.53;15.90;;;5.00;99.90;;;;;;5057042;28;20051;-61
2021/11/18 02:29:10;;;;;;;39.88;15.30;;;4.90;99.90;;;;;;5053733;28;20033;-61
2021/11/18 02:31:40;;;;;;;33.50;14.65;;;4.90;99.90;;;;;;5053096;28;20029;-62
2021/11/18 02:34:15;;;;;;;32.90;13.57;;;4.90;99.90;;;;;;5050549;28;20033;-62
2021/11/18 02:36:41;;;;;;;37.38;14.45;;;4.90;99.90;;;;;;5037303;28;20068;-62
2021/11/18 02:39:07;;;;;;;49.47;16.58;;;4.90;99.90;;;;;;5045539;28;20053;-60
2021/11/18 02:41:34;;;;;;;47.45;15.73;;;4.90;99.90;;;;;;5042949;28;20021;-61
2021/11/18 02:44:00;;;;;;;43.03;14.80;;;4.90;99.90;;;;;;5052321;28;20064;-61
2021/11/18 02:46:26;;;;;;;43.25;13.95;;;4.80;99.90;;;;;;5051591;28;20064;-61
2021/11/18 02:48:52;;;;;;;46.70;16.13;;;4.80;99.90;;;;;;5036645;28;20068;-61
2021/11/18 02:51:19;;;;;;;42.67;14.15;;;4.80;99.90;;;;;;5042421;28;20029;-61
2021/11/18 02:53:46;;;;;;;37.22;14.48;;;4.80;99.90;;;;;;5049678;28;20029;-61
2021/11/18 02:56:12;;;;;;;38.28;15.45;;;4.80;99.90;;;;;;5035964;28;20022;-62
2021/11/18 02:58:38;;;;;;;45.05;16.13;;;4.80;99.90;;;;;;5051193;28;20494;-63
2021/11/18 03:01:11;;;;;;;39.70;16.00;;;4.90;99.90;;;;;;5044234;28;20056;-62
2021/11/18 03:03:39;;;;;;;44.67;14.88;;;4.80;99.90;;;;;;5043818;28;20383;-62
2021/11/18 03:06:05;;;;;;;34.95;13.45;;;4.70;99.90;;;;;;5039458;28;20179;-62
2021/11/18 03:08:31;;;;;;;43.30;15.07;;;4.60;99.90;;;;;;5037218;28;20025;-62
2021/11/18 03:10:58;;;;;;;47.20;16.88;;;4.60;99.90;;;;;;5046156;28;20121;-61
2021/11/18 03:13:25;;;;;;;48.47;16.75;;;4.50;99.90;;;;;;5042370;28;20033;-62
2021/11/18 03:15:52;;;;;;;38.05;15.75;;;4.50;99.90;;;;;;5043709;28;20021;-60
2021/11/18 03:18:19;;;;;;;49.60;16.33;;;4.50;99.90;;;;;;5038066;28;20037;-61
2021/11/18 03:20:45;;;;;;;42.15;15.70;;;4.40;99.90;;;;;;5041831;28;20100;-62
2021/11/18 03:23:11;;;;;;;37.63;15.57;;;4.40;99.90;;;;;;5041493;28;20064;-61
2021/11/18 03:25:38;;;;;;;36.88;14.00;;;4.40;99.90;;;;;;5044345;28;20100;-62
2021/11/18 03:28:05;;;;;;;43.67;15.13;;;4.30;99.90;;;;;;5049512;28;20104;-61
2021/11/18 03:30:35;;;;;;;29.10;13.93;;;4.30;99.90;;;;;;5044157;28;20045;-62
2021/11/18 03:33:05;;;;;;;36.22;15.38;;;4.30;99.90;;;;;;5046910;28;20509;-60
2021/11/18 03:35:30;;;;;;;35.40;13.77;;;4.30;99.90;;;;;;5044431;28;20057;-62
2021/11/18 03:37:57;;;;;;;32.13;12.55;;;4.30;99.90;;;;;;5033493;28;20487;-61
2021/11/18 03:40:24;;;;;;;45.13;13.40;;;4.20;99.90;;;;;;5045493;28;20032;-61
2021/11/18 03:42:50;;;;;;;40.28;14.45;;;4.20;99.90;;;;;;5039436;28;20021;-62
2021/11/18 03:45:18;;;;;;;44.45;14.40;;;4.20;99.90;;;;;;5044730;28;20029;-62
2021/11/18 03:47:44;;;;;;;35.08;12.50;;;4.10;99.90;;;;;;5041212;28;20327;-61
2021/11/18 03:50:10;;;;;;;36.92;14.50;;;4.00;99.90;;;;;;5039015;28;20049;-61
2021/11/18 03:52:37;;;;;;;32.45;12.10;;;4.00;99.90;;;;;;5044085;28;20024;-62
2021/11/18 03:55:08;;;;;;;40.92;12.10;;;4.00;99.90;;;;;;5037521;28;20099;-62
2021/11/18 03:57:35;;;;;;;33.95;13.57;;;4.10;99.90;;;;;;5036480;28;20445;-62
2021/11/18 04:00:01;;;;;;;37.22;14.10;;;4.10;99.90;;;;;;5043224;28;20112;-62
2021/11/18 04:02:26;;;;;;;37.90;13.52;;;4.10;99.90;;;;;;5046981;28;20109;-61
2021/11/18 04:04:59;;;;;;;30.88;12.50;;;4.10;99.90;;;;;;5035681;28;20025;-61
2021/11/18 04:07:25;;;;;;;29.25;12.60;;;4.10;99.90;;;;;;5037195;28;20063;-61
2021/11/18 04:09:50;;;;;;;39.00;12.52;;;4.00;99.90;;;;;;5041954;28;20035;-61
2021/11/18 04:12:16;;;;;;;28.08;12.85;;;4.00;99.90;;;;;;5041276;28;20100;-61
2021/11/18 04:14:42;;;;;;;34.55;13.57;;;4.00;99.90;;;;;;5035521;28;20025;-60
2021/11/18 04:17:09;;;;;;;34.72;12.57;;;4.10;99.90;;;;;;5041780;28;20092;-62
2021/11/18 04:19:34;;;;;;;39.33;13.20;;;4.00;99.90;;;;;;5041013;28;20649;-62
2021/11/18 04:22:00;;;;;;;35.00;13.32;;;4.10;99.90;;;;;;5038345;28;20033;-62
2021/11/18 04:24:28;;;;;;;27.52;12.82;;;4.00;99.90;;;;;;5041712;28;20032;-62
2021/11/18 04:26:54;;;;;;;30.05;11.48;;;3.90;99.90;;;;;;5040264;28;20111;-62
2021/11/18 04:29:27;;;;;;;24.60;10.60;;;3.80;99.90;;;;;;5046427;28;20048;-62
2021/11/18 04:32:06;;;;;;;33.47;12.52;;;3.80;99.90;;;;;;5032318;28;20032;-62
2021/11/18 04:34:32;;;;;;;44.70;14.77;;;3.80;99.90;;;;;;5044208;28;20432;-61
2021/11/18 04:36:57;;;;;;;37.70;14.07;;;3.80;99.90;;;;;;5040089;28;20116;-63
2021/11/18 04:39:23;;;;;;;48.13;13.27;;;3.90;99.90;;;;;;5036376;28;20873;-62
2021/11/18 04:41:48;;;;;;;36.47;14.15;;;3.90;99.90;;;;;;5039061;28;20132;-61
2021/11/18 04:44:14;;;;;;;32.83;12.80;;;3.80;99.90;;;;;;5042414;28;20502;-61
2021/11/18 04:46:40;;;;;;;32.42;11.73;;;3.80;99.90;;;;;;5040422;28;20029;-62
2021/11/18 04:49:06;;;;;;;32.13;12.45;;;3.70;99.90;;;;;;5032912;28;20041;-61
2021/11/18 04:51:33;;;;;;;33.67;12.45;;;3.70;99.90;;;;;;5042164;28;20033;-60
2021/11/18 04:53:58;;;;;;;37.33;13.05;;;3.90;99.90;;;;;;5043370;28;20029;-61
2021/11/18 04:56:26;;;;;;;44.63;14.30;;;3.80;99.90;;;;;;5045829;28;20383;-61
2021/11/18 04:58:55;;;;;;;28.95;11.90;;;3.80;99.90;;;;;;5035822;28;20112;-62
2021/11/18 05:01:21;;;;;;;33.50;13.93;;;3.80;99.90;;;;;;5039312;28;20455;-62
2021/11/18 05:03:47;;;;;;;39.95;12.93;;;3.80;99.90;;;;;;5031834;28;20029;-62
2021/11/18 05:06:13;;;;;;;32.00;13.95;;;3.70;99.90;;;;;;5043330;28;20033;-62
2021/11/18 05:08:39;;;;;;;43.30;13.52;;;3.70;99.90;;;;;;5046446;28;20033;-62
2021/11/18 05:11:05;;;;;;;32.42;11.68;;;3.70;99.90;;;;;;5040483;28;20032;-61
2021/11/18 05:13:31;;;;;;;31.20;11.52;;;3.80;99.90;;;;;;5037294;28;20049;-61
2021/11/18 05:15:59;;;;;;;43.80;14.18;;;3.70;99.90;;;;;;5040832;28;20079;-61
2021/11/18 05:18:27;;;;;;;32.20;12.35;;;3.70;99.90;;;;;;5034049;28;20032;-61
2021/11/18 05:20:54;;;;;;;28.23;10.38;;;3.70;99.90;;;;;;5030222;28;20022;-62
2021/11/18 05:23:20;;;;;;;33.53;12.07;;;3.70;99.90;;;;;;5042891;28;20238;-62
2021/11/18 05:25:46;;;;;;;31.27;11.73;;;3.70;99.90;;;;;;5043758;28;20025;-62
2021/11/18 05:28:12;;;;;;;25.58;11.45;;;3.60;99.90;;;;;;5042127;28;20106;-60
2021/11/18 05:30:38;;;;;;;36.00;11.35;;;3.50;99.90;;;;;;5036496;28;20400;-61
2021/11/18 05:33:09;;;;;;;33.67;10.55;;;3.40;99.90;;;;;;5038573;28;20504;-62
2021/11/18 05:35:35;;;;;;;33.63;12.18;;;3.30;99.90;;;;;;5043907;28;20099;-61
2021/11/18 05:38:03;;;;;;;35.33;13.52;;;3.20;99.90;;;;;;5044923;28;20040;-62
2021/11/18 05:40:29;;;;;;;26.70;11.32;;;3.20;99.90;;;;;;5049359;28;20021;-61
2021/11/18 05:42:55;;;;;;;29.63;11.23;;;3.20;99.90;;;;;;5056768;28;20029;-61
2021/11/18 05:45:27;;;;;;;33.13;11.38;;;3.10;99.90;;;;;;5045136;28;20120;-59
2021/11/18 05:47:53;;;;;;;39.65;12.48;;;3.10;99.90;;;;;;5037413;28;20110;-62
2021/11/18 05:50:21;;;;;;;30.08;12.13;;;3.20;99.90;;;;;;5053899;28;20490;-61
2021/11/18 05:52:47;;;;;;;39.78;12.70;;;3.20;99.90;;;;;;5049892;28;20136;-62
2021/11/18 05:55:15;;;;;;;29.73;11.93;;;3.20;99.90;;;;;;5045796;28;20167;-61
2021/11/18 05:57:42;;;;;;;32.65;12.60;;;3.30;99.90;;;;;;5034217;28;20068;-62
2021/11/18 06:00:12;;;;;;;27.25;11.52;;;3.30;99.90;;;;;;5042241;28;20036;-60
2021/11/18 06:02:38;;;;;;;32.28;11.43;;;3.30;99.90;;;;;;5040486;28;20399;-61
2021/11/18 06:05:05;;;;;;;33.45;13.15;;;3.40;99.90;;;;;;5040953;28;20021;-62
2021/11/18 06:07:32;;;;;;;36.50;14.20;;;3.40;99.90;;;;;;5037297;28;20028;-62
2021/11/18 06:09:57;;;;;;;29.08;11.35;;;3.50;99.90;;;;;;5032605;28;20029;-62
2021/11/18 06:12:24;;;;;;;33.63;12.00;;;3.50;99.90;;;;;;5041587;28;20059;-62
2021/11/18 06:14:50;;;;;;;37.22;12.43;;;3.40;99.90;;;;;;5033021;28;20040;-61
2021/11/18 06:17:16;;;;;;;28.92;11.48;;;3.40;99.90;;;;;;5036941;28;20022;-59
2021/11/18 06:19:42;;;;;;;33.83;11.82;;;3.40;99.90;;;;;;5034736;28;20478;-61
2021/11/18 06:22:08;;;;;;;29.50;11.88;;;3.40;99.90;;;;;;5042929;28;20104;-62
2021/11/18 06:24:34;;;;;;;22.83;11.07;;;3.40;99.90;;;;;;5039424;28;20111;-61
2021/11/18 06:26:59;;;;;;;32.90;13.27;;;3.50;99.90;;;;;;5042179;28;20407;-62
2021/11/18 06:29:29;;;;;;;34.47;12.85;;;3.50;99.90;;;;;;5050178;28;20425;-61
2021/11/18 06:31:56;;;;;;;31.40;11.40;;;3.60;99.90;;;;;;5037896;28;20438;-62
2021/11/18 06:34:22;;;;;;;28.70;10.82;;;3.50;99.90;;;;;;5035463;28;20064;-62
2021/11/18 06:36:48;;;;;;;26.90;11.57;;;3.50;99.90;;;;;;5048078;28;20082;-61
2021/11/18 06:39:14;;;;;;;29.77;11.15;;;3.50;99.90;;;;;;5044399;28;20029;-60
2021/11/18 06:41:41;;;;;;;31.88;11.45;;;3.50;99.90;;;;;;5042937;28;20021;-61
2021/11/18 06:44:07;;;;;;;28.45;10.77;;;3.60;99.90;;;;;;5042675;28;20112;-62
2021/11/18 06:46:34;;;;;;;26.85;10.50;;;3.70;99.90;;;;;;5041171;28;20379;-61
2021/11/18 06:49:01;;;;;;;27.90;11.40;;;3.80;99.90;;;;;;5050256;28;20457;-61
2021/11/18 06:51:27;;;;;;;23.83;11.63;;;3.90;99.90;;;;;;5046448;28;20471;-59
2021/11/18 06:53:56;;;;;;;27.33;11.65;;;4.00;99.90;;;;;;5039174;28;20156;-62
2021/11/18 06:56:22;;;;;;;27.75;11.05;;;4.10;99.90;;;;;;5043998;28;20024;-62
2021/11/18 06:58:49;;;;;;;29.63;11.63;;;4.20;99.90;;;;;;5046845;28;20014;-61
2021/11/18 07:01:15;;;;;;;29.30;10.52;;;4.30;99.90;;;;;;5049599;28;20490;-63
2021/11/18 07:03:40;;;;;;;28.65;11.48;;;4.30;99.90;;;;;;5048542;28;20081;-61
2021/11/18 07:06:12;;;;;;;34.53;11.07;;;4.40;99.90;;;;;;5049475;28;20440;-62
2021/11/18 07:08:38;;;;;;;26.13;10.45;;;4.40;99.90;;;;;;5037147;28;20017;-60
2021/11/18 07:11:04;;;;;;;23.35;11.82;;;4.50;99.90;;;;;;5048589;28;20108;-62
2021/11/18 07:13:32;;;;;;;26.27;9.93;;;4.50;99.90;;;;;;5047358;28;20028;-61
2021/11/18 07:16:00;;;;;;;26.90;10.65;;;4.40;99.90;;;;;;5048573;28;20070;-61
2021/11/18 07:18:26;;;;;;;30.90;9.75;;;4.40;99.90;;;;;;5047383;28;20028;-62
2021/11/18 07:20:52;;;;;;;23.90;9.75;;;4.40;99.90;;;;;;5048968;28;20040;-61
2021/11/18 07:23:17;;;;;;;30.30;10.27;;;4.40;99.90;;;;;;5046244;28;20025;-59
2021/11/18 07:25:46;;;;;;;31.10;11.35;;;4.50;99.90;;;;;;5047990;28;20032;-62
2021/11/18 07:28:11;;;;;;;22.80;10.23;;;4.50;99.90;;;;;;5040471;28;20063;-62
2021/11/18 07:30:37;;;;;;;29.88;10.43;;;4.60;99.90;;;;;;5039359;28;20068;-62
2021/11/18 07:33:04;;;;;;;28.58;10.90;;;4.60;99.90;;;;;;5045320;28;20029;-62
2021/11/18 07:35:31;;;;;;;28.08;11.10;;;4.60;99.90;;;;;;5067513;22;20041;-66
2021/11/18 07:37:58;;;;;;;24.77;11.48;;;4.70;99.90;;;;;;5068144;28;20031;-66
2021/11/18 07:40:24;;;;;;;29.42;12.13;;;4.70;99.90;;;;;;5066679;28;20107;-64
2021/11/18 07:42:51;;;;;;;26.50;10.73;;;4.80;99.90;;;;;;5078508;28;20024;-62
2021/11/18 07:45:19;;;;;;;20.85;10.75;;;4.90;99.90;;;;;;5058633;28;20016;-64
2021/11/18 07:47:45;;;;;;;22.80;10.38;;;4.90;99.90;;;;;;5049621;28;20411;-64
2021/11/18 07:50:16;;;;;;;23.85;10.80;;;5.00;99.90;;;;;;5050249;28;20039;-64
2021/11/18 07:52:41;;;;;;;25.55;10.43;;;5.00;99.90;;;;;;5049857;28;20029;-64
2021/11/18 07:55:09;;;;;;;31.92;11.07;;;5.00;99.90;;;;;;5043995;28;20032;-63
2021/11/18 07:57:35;;;;;;;28.92;11.63;;;5.10;99.90;;;;;;5032400;28;20024;-63
2021/11/18 08:00:01;;;;;;;33.70;11.57;;;5.20;99.90;;;;;;5045880;28;20213;-63
2021/11/18 08:02:27;;;;;;;36.50;13.15;;;5.20;99.90;;;;;;5054727;28;20086;-63
2021/11/18 08:04:53;;;;;;;25.52;10.85;;;5.30;99.90;;;;;;5049960;28;20111;-64
2021/11/18 08:07:19;;;;;;;27.10;12.75;;;5.40;99.90;;;;;;5049627;28;20100;-65
2021/11/18 08:09:44;;;;;;;27.85;11.68;;;5.50;99.90;;;;;;5052888;28;20017;-63
2021/11/18 08:12:11;;;;;;;28.40;9.55;;;5.60;99.90;;;;;;5057328;28;20028;-64
2021/11/18 08:14:36;;;;;;;32.20;10.60;;;5.70;99.90;;;;;;5048221;28;20533;-65
2021/11/18 08:17:03;;;;;;;28.27;12.13;;;5.70;99.90;;;;;;5045615;28;20029;-64
2021/11/18 08:19:29;;;;;;;24.17;11.40;;;5.80;99.90;;;;;;5068129;28;20228;-64
2021/11/18 08:21:56;;;;;;;28.45;11.80;;;5.90;99.90;;;;;;5048842;28;20048;-65
2021/11/18 08:24:22;;;;;;;29.23;11.02;;;6.00;99.90;;;;;;5048845;28;20032;-63
2021/11/18 08:26:49;;;;;;;33.78;10.75;;;6.10;99.90;;;;;;5045828;28;20483;-63
2021/11/18 08:29:17;;;;;;;37.05;12.75;;;6.20;99.90;;;;;;5048152;28;20033;-64
2021/11/18 08:31:45;;;;;;;30.23;10.75;;;6.30;99.90;;;;;;5058439;28;20051;-62
2021/11/18 08:34:11;;;;;;;28.60;9.82;;;6.30;99.90;;;;;;5068333;28;20025;-66
2021/11/18 08:36:37;;;;;;;31.73;10.38;;;6.40;99.90;;;;;;5055129;28;20035;-63
2021/11/18 08:39:11;;;;;;;28.05;11.20;;;6.50;99.90;;;;;;5030922;28;20431;-65
2021/11/18 08:41:37;;;;;;;29.08;12.32;;;6.50;99.90;;;;;;5027242;28;20047;-64
2021/11/18 08:44:03;;;;;;;28.55;11.18;;;6.60;99.90;;;;;;5048656;28;20029;-65
2021/11/18 08:46:29;;;;;;;45.17;17.83;;;6.70;99.90;;;;;;5026341;28;20044;-65
2021/11/18 08:49:00;;;;;;;45.55;13.95;;;6.80;99.90;;;;;;5049167;28;20025;-65
2021/11/18 08:51:29;;;;;;;35.95;12.52;;;6.90;99.90;;;;;;5058694;28;20028;-65
2021/11/18 08:53:56;;;;;;;31.88;12.27;;;7.00;99.90;;;;;;5068237;28;20035;-65
2021/11/18 08:56:23;;;;;;;39.35;11.05;;;7.10;99.90;;;;;;5058624;28;20036;-64
2021/11/18 08:58:55;;;;;;;33.63;12.13;;;7.20;99.90;;;;;;5068231;28;20021;-65
2021/11/18 09:01:43;;;;;;;37.85;11.45;;;7.30;99.90;;;;;;5042278;28;20083;-64
2021/11/18 09:04:11;;;;;;;28.38;9.25;;;7.40;99.90;;;;;;5068320;28;20024;-64
2021/11/18 09:06:38;;;;;;;32.22;10.25;;;7.50;99.90;;;;;;5054158;28;20021;-64
2021/11/18 09:09:06;;;;;;;32.47;11.48;;;7.60;99.90;;;;;;5049409;28;20032;-62
2021/11/18 09:11:32;;;;;;;35.20;12.52;;;7.60;99.90;;;;;;5064542;28;20025;-65
2021/11/18 09:13:59;;;;;;;35.03;11.07;;;7.70;99.90;;;;;;5054441;28;20416;-66
2021/11/18 09:16:26;;;;;;;28.05;10.40;;;7.70;99.90;;;;;;5054806;28;20036;-65
2021/11/18 09:18:52;;;;;;;34.80;11.70;;;7.90;99.90;;;;;;5052150;28;20032;-65
2021/11/18 09:21:20;;;;;;;33.50;11.18;;;7.90;99.90;;;;;;5063471;28;20448;-65
2021/11/18 09:24:00;;;;;;;26.83;9.38;;;8.00;99.90;;;;;;5062520;28;20106;-67
2021/11/18 09:26:28;;;;;;;25.40;9.10;;;8.10;99.90;;;;;;5052210;28;20458;-64
2021/11/18 09:28:55;;;;;;;37.00;11.50;;;8.20;99.90;;;;;;5047579;28;20588;-65
2021/11/18 09:31:22;;;;;;;35.72;12.32;;;8.30;99.90;;;;;;5053188;28;20477;-65
2021/11/18 09:33:49;;;;;;;32.78;10.25;;;8.40;99.90;;;;;;5056924;28;20035;-64
2021/11/18 09:36:15;;;;;;;30.52;11.15;;;8.50;99.90;;;;;;5071609;28;20020;-66
2021/11/18 09:38:44;;;;;;;34.72;11.05;;;8.60;99.90;;;;;;5065829;28;20031;-64
2021/11/18 09:41:15;;;;;;;31.42;10.68;;;8.60;99.90;;;;;;5072204;28;20031;-64
2021/11/18 09:43:58;;;;;;;37.50;10.25;;;8.80;99.90;;;;;;5064796;28;20027;-64
2021/11/18 09:46:29;;;;;;;37.85;9.68;;;8.80;99.90;;;;;;5060749;28;20016;-65
2021/11/18 09:49:22;;;;;;;33.60;9.32;;;8.90;99.90;;;;;;5046645;28;20536;-65
2021/11/18 09:51:47;;;;;;;26.23;8.65;;;8.90;99.90;;;;;;5049552;28;20075;-66
2021/11/18 09:54:34;;;;;;;24.55;9.52;;;8.90;99.90;;;;;;5051246;28;20037;-64
2021/11/18 09:57:14;;;;;;;23.65;8.35;;;8.90;99.90;;;;;;5052461;28;20056;-66
2021/11/18 09:59:58;;;;;;;29.73;9.32;;;9.00;99.90;;;;;;5063583;28;20733;-65
2021/11/18 10:03:01;;;;;;;32.00;9.57;;;9.00;99.90;;;;;;5063387;28;20037;-64
2021/11/18 10:05:40;;;;;;;27.13;9.45;;;9.00;99.90;;;;;;5053064;28;20032;-64
2021/11/18 10:08:12;;;;;;;31.30;10.13;;;9.10;99.90;;;;;;5061267;28;20033;-66
2021/11/18 10:11:06;;;;;;;29.30;9.73;;;9.20;99.90;;;;;;5063713;28;20486;-65
2021/11/18 10:13:42;;;;;;;31.65;9.18;;;9.30;99.90;;;;;;5052241;28;20108;-65
2021/11/18 10:16:20;;;;;;;30.75;9.70;;;9.40;99.90;;;;;;5051264;28;20367;-65
2021/11/18 10:18:49;;;;;;;34.38;9.35;;;9.50;99.90;;;;;;5053347;28;20048;-64
2021/11/18 10:21:45;;;;;;;34.95;9.10;;;9.70;99.90;;;;;;5070135;28;20035;-65
2021/11/18 10:24:20;;;;;;;26.30;8.60;;;9.70;99.90;;;;;;5051575;28;20029;-64
2021/11/18 10:26:52;;;;;;;32.40;7.53;;;9.80;99.90;;;;;;5069858;28;20493;-65
2021/11/18 10:29:23;;;;;;;31.60;8.23;;;10.00;99.90;;;;;;5060093;28;20032;-66
2021/11/18 10:32:15;;;;;;;33.08;8.27;;;10.10;99.90;;;;;;5059783;28;20021;-65
2021/11/18 10:34:46;;;;;;;32.47;8.05;;;10.20;99.90;;;;;;5049014;28;20394;-65
2021/11/18 10:37:20;;;;;;;33.25;8.10;;;10.20;99.90;;;;;;5049194;28;20025;-64
2021/11/18 10:40:24;;;;;;;33.25;7.53;;;10.30;99.90;;;;;;5049029;28;20051;-64
2021/11/18 10:42:51;;;;;;;25.33;7.53;;;10.30;99.90;;;;;;5052547;28;20080;-64
2021/11/18 10:45:34;;;;;;;29.67;8.13;;;10.40;99.90;;;;;;5070395;28;20486;-64
2021/11/18 10:48:21;;;;;;;34.38;7.18;;;10.50;99.90;;;;;;5046533;28;20029;-64
2021/11/18 10:50:52;;;;;;;30.35;7.50;;;10.60;99.90;;;;;;5051975;28;20025;-66
2021/11/18 10:53:27;;;;;;;31.23;8.20;;;10.60;99.90;;;;;;5051911;28;20369;-65
2021/11/18 10:55:59;;;;;;;33.83;6.78;;;10.60;99.90;;;;;;5046603;28;20540;-64
2021/11/18 10:58:24;;;;;;;39.88;8.38;;;10.70;99.90;;;;;;5052111;28;20017;-65
2021/11/18 11:00:55;;;;;;;34.70;7.00;;;10.80;99.90;;;;;;5045420;28;20025;-65
2021/11/18 11:03:41;;;;;;;25.92;6.72;;;10.80;99.90;;;;;;5054959;28;20029;-65
2021/11/18 11:06:24;;;;;;;32.47;7.50;;;10.90;99.90;;;;;;5050302;28;20021;-65
2021/11/18 11:09:12;;;;;;;30.02;6.20;;;11.00;99.90;;;;;;5061588;28;20031;-63
2021/11/18 11:11:46;;;;;;;23.45;6.70;;;11.00;99.90;;;;;;5067351;28;20108;-65
2021/11/18 11:14:30;;;;;;;;;;;11.20;99.90;;;;;;5032994;28;20029;-63
2021/11/18 11:17:22;;;;;;;36.72;6.80;;;11.20;99.90;;;;;;5051227;28;19905;-64
2021/11/18 11:20:06;;;;;;;29.80;6.18;;;11.20;99.90;;;;;;5055661;28;20028;-65
2021/11/18 11:22:51;;;;;;;35.05;8.02;;;11.30;99.90;;;;;;5045730;28;20029;-64
2021/11/18 11:25:52;;;;;;;30.63;7.07;;;11.40;99.90;;;;;;5053971;28;20039;-65
2021/11/18 11:28:47;;;;;;;28.30;5.75;;;11.50;99.90;;;;;;5069687;28;20106;-64
2021/11/18 11:31:16;;;;;;;;;;;11.60;99.90;;;;;;5052593;28;20060;-64
2021/11/18 11:34:07;;;;;;;27.38;5.20;;;11.80;99.90;;;;;;5049733;28;20430;-63
2021/11/18 11:36:35;;;;;;;36.30;5.95;;;11.80;99.90;;;;;;5047201;28;20061;-65
2021/11/18 11:39:06;;;;;;;30.17;6.22;;;11.70;99.90;;;;;;5069215;28;20192;-63
2021/11/18 11:42:08;;;;;;;31.17;5.13;;;11.60;99.90;;;;;;5061631;28;20096;-64
2021/11/18 11:45:11;;;;;;;29.60;5.30;;;11.70;99.90;;;;;;5066486;28;20041;-66
2021/11/18 11:47:55;;;;;;;30.60;6.70;;;11.80;99.90;;;;;;5049185;28;20087;-63
2021/11/18 11:50:39;;;;;;;22.25;5.18;;;11.90;99.90;;;;;;5049424;28;20074;-65
2021/11/18 11:53:30;;;;;;;28.13;5.53;;;12.00;99.90;;;;;;5045004;28;20029;-65
2021/11/18 11:56:19;;;;;;;29.85;5.70;;;12.00;99.90;;;;;;5047664;28;20095;-65
2021/11/18 11:59:22;;;;;;;30.83;5.78;;;12.00;99.90;;;;;;5048356;28;20052;-65
2021/11/18 12:02:16;;;;;;;27.80;5.65;;;12.00;99.90;;;;;;5015533;28;20056;-64
2021/11/18 12:04:44;;;;;;;26.17;4.90;;;12.00;99.90;;;;;;5044386;28;20051;-66
2021/11/18 12:07:51;;;;;;;35.88;5.40;;;12.10;99.90;;;;;;5054665;28;20025;-66
2021/11/18 12:10:42;;;;;;;30.75;5.25;;;12.00;99.90;;;;;;5032473;28;20041;-64
2021/11/18 12:13:17;;;;;;;37.85;5.60;;;12.10;99.90;;;;;;5043821;28;20059;-65
2021/11/18 12:15:49;;;;;;;27.50;4.45;;;12.20;99.90;;;;;;5042965;28;20040;-60
2021/11/18 12:18:21;;;;;;;33.15;4.40;;;12.40;99.90;;;;;;5052990;28;20027;-63
2021/11/18 12:20:48;;;;;;;32.92;5.05;;;12.40;99.90;;;;;;5042713;28;20024;-65
2021/11/18 12:23:18;;;;;;;26.15;5.50;;;12.40;99.90;;;;;;5048888;28;20029;-65
2021/11/18 12:25:49;;;;;;;24.50;5.38;;;12.30;99.90;;;;;;5046530;28;20063;-65
2021/11/18 12:28:20;;;;;;;24.15;5.72;;;12.40;99.90;;;;;;5051896;28;20167;-64
2021/11/18 12:31:05;;;;;;;29.52;5.07;;;12.40;99.90;;;;;;5049090;28;20052;-63
2021/11/18 12:33:30;;;;;;;37.28;4.88;;;12.50;99.90;;;;;;5040869;28;20033;-65
2021/11/18 12:36:11;;;;;;;33.30;5.15;;;12.40;99.90;;;;;;5043721;28;20071;-64
2021/11/18 12:38:57;;;;;;;32.47;4.75;;;12.40;99.90;;;;;;5044730;28;20029;-61
2021/11/18 12:41:44;;;;;;;26.60;5.93;;;12.50;99.90;;;;;;5027710;28;20033;-60
2021/11/18 12:44:13;;;;;;;26.60;4.13;;;12.50;99.90;;;;;;5040319;28;20519;-65
2021/11/18 12:46:57;;;;;;;27.73;5.70;;;12.50;99.90;;;;;;5038629;28;20107;-65
2021/11/18 12:49:25;;;;;;;30.20;4.78;;;12.60;99.90;;;;;;5044042;28;20037;-64
2021/11/18 12:52:08;;;;;;;31.77;6.07;;;12.50;99.90;;;;;;5045985;28;20175;-63
2021/11/18 12:54:45;;;;;;;27.90;5.03;;;12.50;99.90;;;;;;5048681;28;20036;-63
2021/11/18 12:57:33;;;;;;;21.65;4.20;;;12.40;99.90;;;;;;5036506;28;20029;-63
2021/11/18 13:00:09;;;;;;;22.15;4.35;;;12.40;99.90;;;;;;5044486;28;20041;-63